sensor_id;sensor_type;location;lat;lon;timestamp;pressure;altitude;pressure_sealevel;temperature;humidity
74169;BME280;62523;53.336;83.690;2024-01-10T00:01:27;100013.13;;;-23.87;100.00
74169;BME280;62523;53.336;83.690;2024-01-10T00:06:28;100000.41;;;-23.90;100.00
74169;BME280;62523;53.336;83.690;2024-01-10T00:11:30;99999.25;;;-23.94;100.00
74169;BME280;62523;53.336;83.690;2024-01-10T00:16:31;99992.31;;;-23.88;100.00
74169;BME280;62523;53.336;83.690;2024-01-10T00:21:33;99977.16;;;-23.81;100.00
74169;BME280;62523;53.336;83.690;2024-01-10T00:26:36;99965.94;;;-23.86;100.00
74169;BME280;62523;53.336;83.690;2024-01-10T00:31:37;99950.56;;;-23.90;100.00
74169;BME280;62523;53.336;83.690;2024-01-10T00:36:39;99922.88;;;-23.93;100.00
74169;BME280;62523;53.336;83.690;2024-01-10T00:41:40;99897.38;;;-23.91;100.00
74169;BME280;62523;53.336;83.690;2024-01-10T00:46:42;99890.78;;;-23.90;100.00
74169;BME280;62523;53.336;83.690;2024-01-10T00:51:43;99876.63;;;-23.81;100.00
74169;BME280;62523;53.336;83.690;2024-01-10T00:56:44;99850.38;;;-23.67;100.00
74169;BME280;62523;53.336;83.690;2024-01-10T01:01:45;99837.44;;;-23.63;100.00
74169;BME280;62523;53.336;83.690;2024-01-10T01:06:47;99822.88;;;-23.59;100.00
74169;BME280;62523;53.336;83.690;2024-01-10T01:11:48;99810.03;;;-23.53;100.00
74169;BME280;62523;53.336;83.690;2024-01-10T01:16:50;99792.34;;;-23.56;100.00
74169;BME280;62523;53.336;83.690;2024-01-10T01:21:51;99768.94;;;-23.48;100.00
74169;BME280;62523;53.336;83.690;2024-01-10T01:26:53;99753.50;;;-23.44;100.00
74169;BME280;62523;53.336;83.690;2024-01-10T01:31:55;99732.69;;;-23.34;100.00
74169;BME280;62523;53.336;83.690;2024-01-10T01:36:56;99707.88;;;-23.32;100.00
74169;BME280;62523;53.336;83.690;2024-01-10T01:41:57;99695.28;;;-23.24;100.00
74169;BME280;62523;53.336;83.690;2024-01-10T01:46:59;99656.63;;;-23.08;100.00
74169;BME280;62523;53.336;83.690;2024-01-10T01:52:04;99647.69;;;-22.84;100.00
74169;BME280;62523;53.336;83.690;2024-01-10T01:57:06;99636.06;;;-22.63;100.00
74169;BME280;62523;53.336;83.690;2024-01-10T02:02:08;99632.53;;;-22.55;100.00
74169;BME280;62523;53.336;83.690;2024-01-10T02:07:09;99612.16;;;-22.49;100.00
74169;BME280;62523;53.336;83.690;2024-01-10T02:12:11;99605.13;;;-22.43;100.00
74169;BME280;62523;53.336;83.690;2024-01-10T02:17:12;99597.78;;;-22.42;100.00
74169;BME280;62523;53.336;83.690;2024-01-10T02:22:22;99583.66;;;-22.41;100.00
74169;BME280;62523;53.336;83.690;2024-01-10T02:27:24;99585.06;;;-22.45;100.00
74169;BME280;62523;53.336;83.690;2024-01-10T02:32:25;99563.16;;;-22.59;100.00
74169;BME280;62523;53.336;83.690;2024-01-10T02:37:27;99560.81;;;-22.68;100.00
74169;BME280;62523;53.336;83.690;2024-01-10T02:42:28;99553.59;;;-22.75;100.00
74169;BME280;62523;53.336;83.690;2024-01-10T02:47:31;99548.13;;;-22.81;100.00
74169;BME280;62523;53.336;83.690;2024-01-10T02:52:32;99515.84;;;-22.90;100.00
74169;BME280;62523;53.336;83.690;2024-01-10T02:57:34;99507.09;;;-22.85;100.00
74169;BME280;62523;53.336;83.690;2024-01-10T03:02:35;99503.78;;;-22.74;100.00
74169;BME280;62523;53.336;83.690;2024-01-10T03:07:36;99493.63;;;-22.65;100.00
74169;BME280;62523;53.336;83.690;2024-01-10T03:12:38;99450.16;;;-22.57;100.00
74169;BME280;62523;53.336;83.690;2024-01-10T03:17:39;99414.81;;;-22.39;100.00
74169;BME280;62523;53.336;83.690;2024-01-10T03:22:41;99390.72;;;-22.15;100.00
74169;BME280;62523;53.336;83.690;2024-01-10T03:27:42;99369.38;;;-21.88;100.00
74169;BME280;62523;53.336;83.690;2024-01-10T03:32:44;99358.19;;;-21.70;100.00
74169;BME280;62523;53.336;83.690;2024-01-10T03:37:45;99346.53;;;-21.57;100.00
74169;BME280;62523;53.336;83.690;2024-01-10T03:42:46;99325.75;;;-21.44;100.00
74169;BME280;62523;53.336;83.690;2024-01-10T03:47:48;99320.41;;;-21.37;100.00
74169;BME280;62523;53.336;83.690;2024-01-10T03:52:51;99300.88;;;-21.30;100.00
74169;BME280;62523;53.336;83.690;2024-01-10T03:57:53;99274.56;;;-21.24;100.00
74169;BME280;62523;53.336;83.690;2024-01-10T04:02:54;99253.41;;;-21.16;100.00
74169;BME280;62523;53.336;83.690;2024-01-10T04:07:56;99244.47;;;-21.13;100.00
74169;BME280;62523;53.336;83.690;2024-01-10T04:12:58;99224.72;;;-20.96;100.00
74169;BME280;62523;53.336;83.690;2024-01-10T04:17:59;99212.78;;;-21.00;100.00
74169;BME280;62523;53.336;83.690;2024-01-10T04:23:00;99188.56;;;-20.61;100.00
74169;BME280;62523;53.336;83.690;2024-01-10T04:28:02;99179.41;;;-20.74;100.00
74169;BME280;62523;53.336;83.690;2024-01-10T04:33:03;99154.63;;;-20.56;100.00
74169;BME280;62523;53.336;83.690;2024-01-10T04:38:05;99118.19;;;-20.25;100.00
74169;BME280;62523;53.336;83.690;2024-01-10T04:43:06;99092.81;;;-20.16;100.00
74169;BME280;62523;53.336;83.690;2024-01-10T04:48:08;99057.72;;;-19.88;100.00
74169;BME280;62523;53.336;83.690;2024-01-10T04:53:10;99047.47;;;-19.63;100.00
74169;BME280;62523;53.336;83.690;2024-01-10T04:58:11;99031.28;;;-19.53;100.00
74169;BME280;62523;53.336;83.690;2024-01-10T05:03:13;99015.13;;;-19.28;100.00
74169;BME280;62523;53.336;83.690;2024-01-10T05:08:14;98995.03;;;-19.13;100.00
74169;BME280;62523;53.336;83.690;2024-01-10T05:13:16;98998.53;;;-19.10;100.00
74169;BME280;62523;53.336;83.690;2024-01-10T05:18:18;98986.56;;;-18.99;100.00
74169;BME280;62523;53.336;83.690;2024-01-10T05:23:19;98970.81;;;-18.82;100.00
74169;BME280;62523;53.336;83.690;2024-01-10T05:28:21;98957.31;;;-18.51;100.00
74169;BME280;62523;53.336;83.690;2024-01-10T05:33:23;98920.53;;;-18.32;100.00
74169;BME280;62523;53.336;83.690;2024-01-10T05:38:24;98882.47;;;-18.40;100.00
74169;BME280;62523;53.336;83.690;2024-01-10T05:43:25;98862.09;;;-18.28;100.00
74169;BME280;62523;53.336;83.690;2024-01-10T05:48:27;98829.34;;;-17.96;100.00
74169;BME280;62523;53.336;83.690;2024-01-10T05:53:28;98794.84;;;-17.79;100.00
74169;BME280;62523;53.336;83.690;2024-01-10T05:58:30;98775.19;;;-17.87;100.00
74169;BME280;62523;53.336;83.690;2024-01-10T06:03:32;98749.72;;;-17.76;100.00
74169;BME280;62523;53.336;83.690;2024-01-10T06:08:33;98721.34;;;-17.54;100.00
74169;BME280;62523;53.336;83.690;2024-01-10T06:13:36;98682.88;;;-17.31;100.00
74169;BME280;62523;53.336;83.690;2024-01-10T06:18:37;98645.91;;;-17.13;100.00
74169;BME280;62523;53.336;83.690;2024-01-10T06:23:39;98629.97;;;-17.12;100.00
74169;BME280;62523;53.336;83.690;2024-01-10T06:28:41;98615.44;;;-16.98;100.00
74169;BME280;62523;53.336;83.690;2024-01-10T06:33:43;98603.78;;;-16.74;100.00
74169;BME280;62523;53.336;83.690;2024-01-10T06:38:44;98582.78;;;-16.74;100.00
74169;BME280;62523;53.336;83.690;2024-01-10T06:43:45;98556.22;;;-16.66;100.00
74169;BME280;62523;53.336;83.690;2024-01-10T06:48:47;98527.19;;;-16.34;100.00
74169;BME280;62523;53.336;83.690;2024-01-10T06:53:48;98483.31;;;-16.15;100.00
74169;BME280;62523;53.336;83.690;2024-01-10T06:58:49;98466.75;;;-16.06;100.00
74169;BME280;62523;53.336;83.690;2024-01-10T07:03:52;98430.06;;;-15.73;100.00
74169;BME280;62523;53.336;83.690;2024-01-10T07:08:54;98405.63;;;-15.47;100.00
74169;BME280;62523;53.336;83.690;2024-01-10T07:13:55;98391.25;;;-15.49;100.00
74169;BME280;62523;53.336;83.690;2024-01-10T07:18:56;98341.34;;;-15.29;100.00
74169;BME280;62523;53.336;83.690;2024-01-10T07:23:58;98324.75;;;-14.92;100.00
74169;BME280;62523;53.336;83.690;2024-01-10T07:29:00;98288.94;;;-14.77;100.00
74169;BME280;62523;53.336;83.690;2024-01-10T07:34:03;98247.31;;;-14.57;100.00
74169;BME280;62523;53.336;83.690;2024-01-10T07:39:07;98233.53;;;-14.68;100.00
74169;BME280;62523;53.336;83.690;2024-01-10T07:44:09;98210.31;;;-14.52;100.00
74169;BME280;62523;53.336;83.690;2024-01-10T07:49:10;98197.81;;;-14.47;100.00
74169;BME280;62523;53.336;83.690;2024-01-10T07:54:11;98167.63;;;-14.39;100.00
74169;BME280;62523;53.336;83.690;2024-01-10T07:59:13;98152.00;;;-14.23;100.00
74169;BME280;62523;53.336;83.690;2024-01-10T08:04:16;98128.75;;;-14.05;100.00
74169;BME280;62523;53.336;83.690;2024-01-10T08:09:18;98120.31;;;-14.06;100.00
74169;BME280;62523;53.336;83.690;2024-01-10T08:14:22;98099.63;;;-13.86;100.00
74169;BME280;62523;53.336;83.690;2024-01-10T08:19:27;98075.44;;;-13.72;100.00
74169;BME280;62523;53.336;83.690;2024-01-10T08:24:28;98063.00;;;-13.59;100.00
74169;BME280;62523;53.336;83.690;2024-01-10T08:29:30;98037.94;;;-13.44;100.00
74169;BME280;62523;53.336;83.690;2024-01-10T08:34:32;98014.41;;;-13.38;100.00
74169;BME280;62523;53.336;83.690;2024-01-10T08:39:34;97984.31;;;-13.20;100.00
74169;BME280;62523;53.336;83.690;2024-01-10T08:44:35;97970.19;;;-13.04;100.00
74169;BME280;62523;53.336;83.690;2024-01-10T08:49:37;97945.22;;;-12.76;100.00
74169;BME280;62523;53.336;83.690;2024-01-10T08:54:39;97935.22;;;-12.66;99.88
74169;BME280;62523;53.336;83.690;2024-01-10T08:59:43;97922.63;;;-12.60;100.00
74169;BME280;62523;53.336;83.690;2024-01-10T09:04:45;97902.50;;;-12.47;100.00
74169;BME280;62523;53.336;83.690;2024-01-10T09:09:46;97879.72;;;-12.43;99.62
74169;BME280;62523;53.336;83.690;2024-01-10T09:14:48;97868.81;;;-12.34;100.00
74169;BME280;62523;53.336;83.690;2024-01-10T09:19:49;97845.19;;;-12.27;100.00
74169;BME280;62523;53.336;83.690;2024-01-10T09:24:51;97826.72;;;-12.12;100.00
74169;BME280;62523;53.336;83.690;2024-01-10T09:29:53;97810.72;;;-12.06;100.00
74169;BME280;62523;53.336;83.690;2024-01-10T09:34:54;97812.50;;;-11.94;100.00
74169;BME280;62523;53.336;83.690;2024-01-10T09:39:56;97808.31;;;-11.88;100.00
74169;BME280;62523;53.336;83.690;2024-01-10T09:44:58;97771.91;;;-11.85;100.00
74169;BME280;62523;53.336;83.690;2024-01-10T09:50:00;97766.03;;;-11.80;100.00
74169;BME280;62523;53.336;83.690;2024-01-10T09:55:04;97729.59;;;-11.82;100.00
74169;BME280;62523;53.336;83.690;2024-01-10T10:00:07;97713.47;;;-11.94;100.00
74169;BME280;62523;53.336;83.690;2024-01-10T10:05:16;97693.94;;;-12.00;100.00
74169;BME280;62523;53.336;83.690;2024-01-10T10:10:18;97679.50;;;-12.09;100.00
74169;BME280;62523;53.336;83.690;2024-01-10T10:15:21;97659.97;;;-12.18;100.00
74169;BME280;62523;53.336;83.690;2024-01-10T10:20:27;97674.34;;;-12.23;100.00
74169;BME280;62523;53.336;83.690;2024-01-10T10:25:34;97662.41;;;-12.33;100.00
74169;BME280;62523;53.336;83.690;2024-01-10T10:30:36;97639.53;;;-12.38;100.00
74169;BME280;62523;53.336;83.690;2024-01-10T10:35:37;97627.81;;;-12.23;100.00
74169;BME280;62523;53.336;83.690;2024-01-10T10:40:38;97602.47;;;-12.14;100.00
74169;BME280;62523;53.336;83.690;2024-01-10T10:45:44;97574.56;;;-12.12;100.00
74169;BME280;62523;53.336;83.690;2024-01-10T10:56:10;97535.66;;;-12.02;100.00
74169;BME280;62523;53.336;83.690;2024-01-10T11:01:15;97528.94;;;-11.89;100.00
74169;BME280;62523;53.336;83.690;2024-01-10T11:06:17;97513.72;;;-11.82;100.00
74169;BME280;62523;53.336;83.690;2024-01-10T11:16:54;97473.97;;;-11.63;100.00
74169;BME280;62523;53.336;83.690;2024-01-10T11:27:53;97422.31;;;-11.36;100.00
74169;BME280;62523;53.336;83.690;2024-01-10T11:32:56;97399.44;;;-11.28;100.00
74169;BME280;62523;53.336;83.690;2024-01-10T11:37:59;97396.91;;;-11.11;100.00
74169;BME280;62523;53.336;83.690;2024-01-10T11:43:02;97382.47;;;-11.12;100.00
74169;BME280;62523;53.336;83.690;2024-01-10T11:48:03;97361.25;;;-11.03;100.00
74169;BME280;62523;53.336;83.690;2024-01-10T11:53:08;97325.66;;;-11.03;100.00
74169;BME280;62523;53.336;83.690;2024-01-10T11:58:10;97318.88;;;-10.95;100.00
74169;BME280;62523;53.336;83.690;2024-01-10T12:03:12;97291.72;;;-10.87;100.00
74169;BME280;62523;53.336;83.690;2024-01-10T12:08:14;97273.03;;;-10.77;100.00
74169;BME280;62523;53.336;83.690;2024-01-10T12:13:22;97279.69;;;-10.53;100.00
74169;BME280;62523;53.336;83.690;2024-01-10T12:18:23;97242.34;;;-10.51;100.00
74169;BME280;62523;53.336;83.690;2024-01-10T12:23:25;97242.16;;;-10.27;100.00
74169;BME280;62523;53.336;83.690;2024-01-10T12:28:31;97222.50;;;-10.12;100.00
74169;BME280;62523;53.336;83.690;2024-01-10T12:33:33;97213.91;;;-9.95;100.00
74169;BME280;62523;53.336;83.690;2024-01-10T12:38:38;97188.31;;;-9.84;100.00
74169;BME280;62523;53.336;83.690;2024-01-10T12:43:40;97149.94;;;-9.71;100.00
74169;BME280;62523;53.336;83.690;2024-01-10T12:48:42;97133.75;;;-9.63;100.00
74169;BME280;62523;53.336;83.690;2024-01-10T12:53:43;97125.94;;;-9.50;100.00
74169;BME280;62523;53.336;83.690;2024-01-10T12:58:45;97131.66;;;-9.32;100.00
74169;BME280;62523;53.336;83.690;2024-01-10T13:03:46;97115.41;;;-9.23;100.00
74169;BME280;62523;53.336;83.690;2024-01-10T13:08:49;97082.09;;;-9.13;100.00
74169;BME280;62523;53.336;83.690;2024-01-10T13:13:50;97068.38;;;-9.02;100.00
74169;BME280;62523;53.336;83.690;2024-01-10T13:18:52;97052.91;;;-8.92;100.00
74169;BME280;62523;53.336;83.690;2024-01-10T13:23:54;97022.94;;;-8.79;100.00
74169;BME280;62523;53.336;83.690;2024-01-10T13:28:56;97013.22;;;-8.58;100.00
74169;BME280;62523;53.336;83.690;2024-01-10T13:33:57;97003.88;;;-8.58;100.00
74169;BME280;62523;53.336;83.690;2024-01-10T13:38:58;96983.19;;;-8.44;100.00
74169;BME280;62523;53.336;83.690;2024-01-10T13:44:00;96960.84;;;-8.34;100.00
74169;BME280;62523;53.336;83.690;2024-01-10T13:49:01;96952.06;;;-8.21;100.00
74169;BME280;62523;53.336;83.690;2024-01-10T13:54:03;96945.88;;;-8.09;100.00
74169;BME280;62523;53.336;83.690;2024-01-10T13:59:04;96937.13;;;-7.97;100.00
74169;BME280;62523;53.336;83.690;2024-01-10T14:04:05;96912.03;;;-7.78;100.00
74169;BME280;62523;53.336;83.690;2024-01-10T14:09:07;96897.06;;;-7.58;100.00
74169;BME280;62523;53.336;83.690;2024-01-10T14:14:10;96880.63;;;-7.48;100.00
74169;BME280;62523;53.336;83.690;2024-01-10T14:19:12;96843.13;;;-7.49;100.00
74169;BME280;62523;53.336;83.690;2024-01-10T14:24:13;96827.22;;;-7.60;100.00
74169;BME280;62523;53.336;83.690;2024-01-10T14:29:15;96841.59;;;-7.56;100.00
74169;BME280;62523;53.336;83.690;2024-01-10T14:34:16;96825.22;;;-7.14;100.00
74169;BME280;62523;53.336;83.690;2024-01-10T14:39:18;96818.81;;;-6.35;100.00
74169;BME280;62523;53.336;83.690;2024-01-10T14:44:19;96793.19;;;-6.65;100.00
74169;BME280;62523;53.336;83.690;2024-01-10T14:49:20;96789.47;;;-5.97;100.00
74169;BME280;62523;53.336;83.690;2024-01-10T14:54:22;96773.44;;;-6.04;100.00
74169;BME280;62523;53.336;83.690;2024-01-10T14:59:23;96755.28;;;-5.71;100.00
74169;BME280;62523;53.336;83.690;2024-01-10T15:04:24;96740.91;;;-5.77;100.00
74169;BME280;62523;53.336;83.690;2024-01-10T15:09:26;96710.34;;;-5.56;100.00
74169;BME280;62523;53.336;83.690;2024-01-10T15:14:27;96687.38;;;-5.36;100.00
74169;BME280;62523;53.336;83.690;2024-01-10T15:19:30;96689.66;;;-5.03;100.00
74169;BME280;62523;53.336;83.690;2024-01-10T15:24:32;96666.47;;;-5.01;100.00
74169;BME280;62523;53.336;83.690;2024-01-10T15:29:34;96659.16;;;-4.88;100.00
74169;BME280;62523;53.336;83.690;2024-01-10T15:34:35;96661.22;;;-4.75;100.00
74169;BME280;62523;53.336;83.690;2024-01-10T15:39:37;96639.13;;;-4.57;100.00
74169;BME280;62523;53.336;83.690;2024-01-10T15:44:42;96633.63;;;-4.25;100.00
74169;BME280;62523;53.336;83.690;2024-01-10T15:49:43;96609.06;;;-3.92;100.00
74169;BME280;62523;53.336;83.690;2024-01-10T15:54:47;96586.81;;;-3.52;100.00
74169;BME280;62523;53.336;83.690;2024-01-10T15:59:51;96555.25;;;-3.17;100.00
74169;BME280;62523;53.336;83.690;2024-01-10T16:04:53;96545.69;;;-2.96;100.00
74169;BME280;62523;53.336;83.690;2024-01-10T16:09:54;96516.59;;;-2.98;100.00
74169;BME280;62523;53.336;83.690;2024-01-10T16:14:56;96496.75;;;-2.96;100.00
74169;BME280;62523;53.336;83.690;2024-01-10T16:19:57;96473.53;;;-2.77;100.00
74169;BME280;62523;53.336;83.690;2024-01-10T16:24:59;96460.50;;;-2.57;100.00
74169;BME280;62523;53.336;83.690;2024-01-10T16:30:01;96453.78;;;-2.09;100.00
74169;BME280;62523;53.336;83.690;2024-01-10T16:35:05;96425.16;;;-1.55;100.00
74169;BME280;62523;53.336;83.690;2024-01-10T16:40:07;96438.00;;;-0.91;100.00
74169;BME280;62523;53.336;83.690;2024-01-10T16:45:09;96393.53;;;0.06;100.00
74169;BME280;62523;53.336;83.690;2024-01-10T16:50:10;96404.84;;;0.60;100.00
74169;BME280;62523;53.336;83.690;2024-01-10T16:55:11;96393.88;;;0.84;100.00
74169;BME280;62523;53.336;83.690;2024-01-10T17:00:16;96385.53;;;1.06;100.00
74169;BME280;62523;53.336;83.690;2024-01-10T17:05:17;96378.97;;;1.40;100.00
74169;BME280;62523;53.336;83.690;2024-01-10T17:10:20;96381.66;;;1.52;100.00
74169;BME280;62523;53.336;83.690;2024-01-10T17:15:21;96344.94;;;1.58;100.00
74169;BME280;62523;53.336;83.690;2024-01-10T17:20:23;96390.91;;;1.56;100.00
74169;BME280;62523;53.336;83.690;2024-01-10T17:25:26;96385.31;;;1.62;100.00
74169;BME280;62523;53.336;83.690;2024-01-10T17:30:28;96409.28;;;1.78;100.00
74169;BME280;62523;53.336;83.690;2024-01-10T17:35:30;96414.28;;;1.81;100.00
74169;BME280;62523;53.336;83.690;2024-01-10T17:40:31;96421.66;;;1.75;100.00
74169;BME280;62523;53.336;83.690;2024-01-10T17:45:33;96437.53;;;1.83;100.00
74169;BME280;62523;53.336;83.690;2024-01-10T17:50:35;96436.91;;;1.67;100.00
74169;BME280;62523;53.336;83.690;2024-01-10T17:55:36;96456.50;;;1.58;100.00
74169;BME280;62523;53.336;83.690;2024-01-10T18:00:38;96437.94;;;1.64;100.00
74169;BME280;62523;53.336;83.690;2024-01-10T18:05:39;96432.53;;;1.67;100.00
74169;BME280;62523;53.336;83.690;2024-01-10T18:10:44;96452.50;;;1.39;100.00
74169;BME280;62523;53.336;83.690;2024-01-10T18:15:46;96590.94;;;1.38;100.00
74169;BME280;62523;53.336;83.690;2024-01-10T18:20:47;96629.09;;;0.06;100.00
74169;BME280;62523;53.336;83.690;2024-01-10T18:25:49;96642.63;;;-0.05;100.00
74169;BME280;62523;53.336;83.690;2024-01-10T18:30:50;96639.31;;;0.23;100.00
74169;BME280;62523;53.336;83.690;2024-01-10T18:35:51;96660.91;;;0.38;100.00
74169;BME280;62523;53.336;83.690;2024-01-10T18:40:53;96663.41;;;0.09;100.00
74169;BME280;62523;53.336;83.690;2024-01-10T18:45:54;96664.63;;;0.18;100.00
74169;BME280;62523;53.336;83.690;2024-01-10T18:50:56;96710.75;;;0.11;100.00
74169;BME280;62523;53.336;83.690;2024-01-10T18:55:58;96723.44;;;-0.16;100.00
74169;BME280;62523;53.336;83.690;2024-01-10T19:00:59;96758.16;;;-0.36;100.00
74169;BME280;62523;53.336;83.690;2024-01-10T19:06:00;96773.75;;;-0.37;100.00
74169;BME280;62523;53.336;83.690;2024-01-10T19:11:04;96825.44;;;-0.36;100.00
74169;BME280;62523;53.336;83.690;2024-01-10T19:16:08;96937.88;;;-2.09;100.00
74169;BME280;62523;53.336;83.690;2024-01-10T19:21:09;96985.75;;;-2.43;100.00
74169;BME280;62523;53.336;83.690;2024-01-10T19:26:24;97046.03;;;-2.90;100.00
74169;BME280;62523;53.336;83.690;2024-01-10T19:31:25;97096.97;;;-3.43;100.00
74169;BME280;62523;53.336;83.690;2024-01-10T19:36:27;97157.25;;;-4.01;100.00
74169;BME280;62523;53.336;83.690;2024-01-10T19:41:29;97190.03;;;-4.34;100.00
74169;BME280;62523;53.336;83.690;2024-01-10T19:46:30;97191.53;;;-4.86;100.00
74169;BME280;62523;53.336;83.690;2024-01-10T19:51:31;97271.03;;;-5.13;100.00
74169;BME280;62523;53.336;83.690;2024-01-10T19:56:33;97321.56;;;-5.49;100.00
74169;BME280;62523;53.336;83.690;2024-01-10T20:01:34;97338.06;;;-5.95;100.00
74169;BME280;62523;53.336;83.690;2024-01-10T20:06:35;97383.34;;;-6.36;100.00
74169;BME280;62523;53.336;83.690;2024-01-10T20:11:37;97442.88;;;-6.69;100.00
74169;BME280;62523;53.336;83.690;2024-01-10T20:16:39;97494.69;;;-7.07;100.00
74169;BME280;62523;53.336;83.690;2024-01-10T20:21:40;97492.41;;;-7.27;100.00
74169;BME280;62523;53.336;83.690;2024-01-10T20:26:41;97583.38;;;-7.73;100.00
74169;BME280;62523;53.336;83.690;2024-01-10T20:31:43;97640.91;;;-8.20;100.00
74169;BME280;62523;53.336;83.690;2024-01-10T20:36:44;97697.56;;;-8.84;100.00
74169;BME280;62523;53.336;83.690;2024-01-10T20:41:45;97753.84;;;-9.18;100.00
74169;BME280;62523;53.336;83.690;2024-01-10T20:46:47;97787.06;;;-9.60;100.00
74169;BME280;62523;53.336;83.690;2024-01-10T20:51:49;97832.94;;;-9.80;100.00
74169;BME280;62523;53.336;83.690;2024-01-10T20:56:50;97857.53;;;-9.94;100.00
74169;BME280;62523;53.336;83.690;2024-01-10T21:01:52;97892.31;;;-10.12;100.00
74169;BME280;62523;53.336;83.690;2024-01-10T21:06:53;97892.31;;;-10.19;100.00
74169;BME280;62523;53.336;83.690;2024-01-10T21:11:59;97933.88;;;-10.25;100.00
74169;BME280;62523;53.336;83.690;2024-01-10T21:17:01;97961.59;;;-10.80;100.00
74169;BME280;62523;53.336;83.690;2024-01-10T21:22:02;98001.28;;;-11.04;100.00
74169;BME280;62523;53.336;83.690;2024-01-10T21:27:04;98029.13;;;-11.18;100.00
74169;BME280;62523;53.336;83.690;2024-01-10T21:32:05;98055.19;;;-11.39;100.00
74169;BME280;62523;53.336;83.690;2024-01-10T21:37:06;98083.75;;;-11.63;100.00
74169;BME280;62523;53.336;83.690;2024-01-10T21:42:09;98114.75;;;-11.90;100.00
74169;BME280;62523;53.336;83.690;2024-01-10T21:47:10;98148.38;;;-12.08;100.00
74169;BME280;62523;53.336;83.690;2024-01-10T21:52:21;98179.59;;;-12.13;100.00
74169;BME280;62523;53.336;83.690;2024-01-10T21:57:22;98203.91;;;-12.28;100.00
74169;BME280;62523;53.336;83.690;2024-01-10T22:02:23;98219.03;;;-12.34;100.00
74169;BME280;62523;53.336;83.690;2024-01-10T22:07:25;98235.09;;;-12.35;100.00
74169;BME280;62523;53.336;83.690;2024-01-10T22:12:27;98268.22;;;-12.27;100.00
74169;BME280;62523;53.336;83.690;2024-01-10T22:17:32;98284.88;;;-12.42;100.00
74169;BME280;62523;53.336;83.690;2024-01-10T22:22:33;98297.38;;;-12.52;100.00
74169;BME280;62523;53.336;83.690;2024-01-10T22:27:34;98320.13;;;-12.57;100.00
74169;BME280;62523;53.336;83.690;2024-01-10T22:32:38;98319.91;;;-12.68;100.00
74169;BME280;62523;53.336;83.690;2024-01-10T22:37:40;98340.41;;;-12.57;100.00
74169;BME280;62523;53.336;83.690;2024-01-10T22:42:41;98350.47;;;-12.62;100.00
74169;BME280;62523;53.336;83.690;2024-01-10T22:47:42;98358.00;;;-12.65;100.00
74169;BME280;62523;53.336;83.690;2024-01-10T22:52:44;98360.50;;;-12.68;100.00
74169;BME280;62523;53.336;83.690;2024-01-10T22:57:45;98368.97;;;-12.67;100.00
74169;BME280;62523;53.336;83.690;2024-01-10T23:02:48;98399.41;;;-12.67;100.00
74169;BME280;62523;53.336;83.690;2024-01-10T23:07:50;98429.94;;;-12.64;100.00
74169;BME280;62523;53.336;83.690;2024-01-10T23:12:53;98432.25;;;-12.73;100.00
74169;BME280;62523;53.336;83.690;2024-01-10T23:17:54;98440.50;;;-12.84;100.00
74169;BME280;62523;53.336;83.690;2024-01-10T23:22:55;98449.69;;;-12.87;100.00
74169;BME280;62523;53.336;83.690;2024-01-10T23:27:57;98455.34;;;-12.99;100.00
74169;BME280;62523;53.336;83.690;2024-01-10T23:32:59;98472.34;;;-12.95;100.00
74169;BME280;62523;53.336;83.690;2024-01-10T23:38:00;98474.75;;;-13.01;100.00
74169;BME280;62523;53.336;83.690;2024-01-10T23:43:03;98484.59;;;-13.13;100.00
74169;BME280;62523;53.336;83.690;2024-01-10T23:48:05;98496.75;;;-13.00;100.00
74169;BME280;62523;53.336;83.690;2024-01-10T23:53:06;98504.53;;;-12.92;100.00
74169;BME280;62523;53.336;83.690;2024-01-10T23:58:07;98507.19;;;-12.86;100.00
